createdAt,value
2019-05-21T00:00:19.237Z,96.00
2019-05-21T00:02:47.663Z,95.60
2019-05-21T00:05:16.166Z,95.80
2019-05-21T00:07:44.621Z,95.40
2019-05-21T00:10:13.497Z,95.30
2019-05-21T00:12:42.227Z,95.20
2019-05-21T00:15:11.524Z,95.60
2019-05-21T00:17:40.040Z,95.60
2019-05-21T00:20:09.117Z,95.30
2019-05-21T00:22:37.662Z,95.60
2019-05-21T00:25:06.934Z,95.90
2019-05-21T00:27:35.419Z,95.60
2019-05-21T00:30:40.060Z,95.90
2019-05-21T00:33:45.211Z,95.70
2019-05-21T00:36:51.762Z,96.10
2019-05-21T00:39:56.875Z,96.30
2019-05-21T00:42:31.881Z,96.00
2019-05-21T00:45:00.418Z,96.10
2019-05-21T00:47:29.557Z,95.90
2019-05-21T00:49:58.028Z,95.60
2019-05-21T00:52:26.839Z,96.10
2019-05-21T00:54:55.471Z,95.70
2019-05-21T00:57:23.914Z,95.60
2019-05-21T00:59:53.128Z,95.90
2019-05-21T01:02:21.619Z,96.10
2019-05-21T01:05:00.118Z,96.00
2019-05-21T01:07:20.262Z,95.70
2019-05-21T01:09:49.075Z,95.20
2019-05-21T01:12:17.549Z,95.40
2019-05-21T01:14:46.349Z,95.10
2019-05-21T01:17:15.137Z,95.60
2019-05-21T01:19:43.918Z,95.30
2019-05-21T01:22:12.814Z,95.40
2019-05-21T01:24:41.552Z,95.30
2019-05-21T01:27:09.995Z,95.80
2019-05-21T01:29:38.460Z,95.40
2019-05-21T01:32:06.906Z,95.40
2019-05-21T01:34:35.470Z,94.90
2019-05-21T01:37:03.994Z,94.90
2019-05-21T01:39:32.796Z,95.20
2019-05-21T01:42:01.584Z,94.90
2019-05-21T01:44:30.047Z,94.90
2019-05-21T01:46:58.489Z,95.20
2019-05-21T01:49:26.995Z,95.00
2019-05-21T01:51:58.887Z,95.10
2019-05-21T01:54:27.328Z,94.60
2019-05-21T01:57:47.970Z,94.90
2019-05-21T02:00:17.162Z,95.30
2019-05-21T02:02:45.959Z,95.20
2019-05-21T02:05:14.419Z,94.70
2019-05-21T02:07:42.858Z,95.30
2019-05-21T02:10:11.707Z,94.70
2019-05-21T02:12:40.159Z,94.80
2019-05-21T02:15:08.835Z,94.60
2019-05-21T02:17:37.680Z,95.00
2019-05-21T02:20:06.877Z,95.10
2019-05-21T02:22:35.694Z,94.90
2019-05-21T02:25:06.696Z,94.80
2019-05-21T02:27:35.147Z,94.90
2019-05-21T02:30:04.992Z,94.30
2019-05-21T02:32:34.018Z,94.50
2019-05-21T02:35:02.465Z,95.20
2019-05-21T02:37:30.965Z,94.80
2019-05-21T02:39:59.417Z,94.50
2019-05-21T02:42:27.863Z,94.00
2019-05-21T02:44:56.895Z,94.60
2019-05-21T02:47:25.353Z,94.80
2019-05-21T02:49:54.164Z,95.00
2019-05-21T02:52:22.603Z,94.50
2019-05-21T02:54:51.325Z,94.50
2019-05-21T02:57:20.115Z,94.40
2019-05-21T02:59:50.541Z,94.80
2019-05-21T03:02:26.610Z,94.20
2019-05-21T03:04:55.390Z,94.70
2019-05-21T03:07:25.676Z,94.30
2019-05-21T03:09:54.400Z,94.30
2019-05-21T03:12:22.870Z,94.50
2019-05-21T03:14:51.564Z,94.40
2019-05-21T03:17:20.065Z,94.60
2019-05-21T03:19:48.523Z,94.30
2019-05-21T03:22:16.947Z,94.50
2019-05-21T03:24:45.405Z,94.50
2019-05-21T03:27:14.180Z,93.90
2019-05-21T03:29:42.629Z,93.90
2019-05-21T03:32:11.071Z,94.40
2019-05-21T03:34:39.825Z,94.10
2019-05-21T03:37:08.259Z,94.00
2019-05-21T03:39:36.811Z,94.40
2019-05-21T03:42:05.684Z,94.10
2019-05-21T03:44:34.857Z,94.30
2019-05-21T03:47:03.677Z,94.60
2019-05-21T03:49:32.569Z,94.40
2019-05-21T03:52:01.486Z,94.60
2019-05-21T03:54:30.231Z,95.00
2019-05-21T03:56:59.032Z,94.50
2019-05-21T03:59:27.489Z,94.70
2019-05-21T04:01:56.309Z,95.00
2019-05-21T04:04:24.762Z,95.10
2019-05-21T04:06:53.265Z,94.60
2019-05-21T04:09:21.730Z,94.60
2019-05-21T04:11:53.145Z,95.40
2019-05-21T04:14:38.211Z,95.40
2019-05-21T04:17:08.380Z,95.00
2019-05-21T04:19:44.537Z,95.10
2019-05-21T04:22:17.434Z,94.50
2019-05-21T04:24:46.238Z,94.80
2019-05-21T04:27:14.853Z,95.20
2019-05-21T04:29:43.692Z,95.00
2019-05-21T04:32:12.199Z,94.80
2019-05-21T04:34:40.650Z,95.00
2019-05-21T04:37:11.572Z,95.10
2019-05-21T04:39:40.272Z,95.00
2019-05-21T04:42:08.714Z,94.90
2019-05-21T04:44:37.155Z,94.20
2019-05-21T04:47:05.622Z,95.00
2019-05-21T04:49:34.060Z,94.70
2019-05-21T04:52:02.785Z,94.80
2019-05-21T04:54:31.606Z,94.70
2019-05-21T04:57:00.071Z,94.70
2019-05-21T04:59:28.520Z,94.70
2019-05-21T05:01:57.433Z,94.70
2019-05-21T05:04:25.871Z,94.70
2019-05-21T05:06:54.303Z,94.70
2019-05-21T05:09:22.774Z,94.40
2019-05-21T05:11:51.555Z,94.50
2019-05-21T05:14:20.344Z,94.70
2019-05-21T05:16:49.130Z,94.70
2019-05-21T05:19:17.920Z,94.20
2019-05-21T05:21:46.396Z,94.60
2019-05-21T05:24:14.896Z,94.70
2019-05-21T05:26:43.675Z,95.10
2019-05-21T05:29:12.103Z,94.90
2019-05-21T05:31:40.846Z,95.00
2019-05-21T05:34:09.286Z,95.30
2019-05-21T05:36:37.732Z,95.00
2019-05-21T05:39:07.422Z,95.00
2019-05-21T05:41:35.877Z,94.60
2019-05-21T05:44:04.880Z,94.70
2019-05-21T05:46:33.353Z,95.10
2019-05-21T05:49:06.662Z,94.80
2019-05-21T05:51:35.106Z,94.80
2019-05-21T05:54:03.571Z,94.90
2019-05-21T05:56:32.327Z,95.10
2019-05-21T05:59:01.207Z,95.50
2019-05-21T06:01:31.292Z,95.00
2019-05-21T06:04:00.118Z,95.20
2019-05-21T06:06:28.693Z,94.50
2019-05-21T06:08:57.173Z,95.00
2019-05-21T06:11:25.956Z,94.90
2019-05-21T06:13:54.744Z,95.10
2019-05-21T06:16:23.200Z,95.30
2019-05-21T06:18:51.913Z,95.20
2019-05-21T06:21:20.409Z,95.20
2019-05-21T06:23:48.896Z,95.40
2019-05-21T06:26:17.773Z,95.70
2019-05-21T06:28:46.213Z,95.30
2019-05-21T06:31:14.671Z,95.40
2019-05-21T06:33:43.137Z,95.20
2019-05-21T06:36:12.005Z,95.10
2019-05-21T06:38:40.448Z,95.50
2019-05-21T06:41:08.931Z,95.50
2019-05-21T06:43:37.747Z,95.00
2019-05-21T06:46:06.952Z,95.50
2019-05-21T06:48:35.741Z,94.90
2019-05-21T06:51:04.166Z,95.10
2019-05-21T06:53:32.942Z,95.60
2019-05-21T06:56:01.431Z,94.80
2019-05-21T06:58:29.882Z,95.60
2019-05-21T07:00:58.325Z,95.80
2019-05-21T07:03:26.786Z,95.70
2019-05-21T07:05:59.044Z,95.30
2019-05-21T07:08:34.299Z,95.50
2019-05-21T07:10:55.994Z,95.40
2019-05-21T07:13:24.440Z,95.40
2019-05-21T07:15:53.238Z,95.20
2019-05-21T07:18:21.931Z,95.50
2019-05-21T07:20:50.801Z,95.80
2019-05-21T07:23:19.233Z,95.60
2019-05-21T07:25:47.697Z,95.10
2019-05-21T07:28:16.462Z,95.70
2019-05-21T07:30:44.920Z,95.50
2019-05-21T07:33:14.038Z,95.90
2019-05-21T07:35:42.642Z,95.70
2019-05-21T07:38:11.093Z,95.90
2019-05-21T07:40:39.559Z,95.80
2019-05-21T07:43:08.009Z,95.60
2019-05-21T07:45:36.445Z,94.70
2019-05-21T07:48:05.154Z,95.20
2019-05-21T07:50:33.667Z,95.20
2019-05-21T07:53:02.394Z,95.60
2019-05-21T07:55:31.184Z,95.40
2019-05-21T07:57:59.637Z,95.70
2019-05-21T08:00:28.553Z,95.60
2019-05-21T08:02:57.343Z,95.60
2019-05-21T08:05:26.056Z,95.50
2019-05-21T08:07:54.493Z,95.80
2019-05-21T08:10:22.976Z,95.70
2019-05-21T08:12:51.460Z,96.00
2019-05-21T08:15:20.252Z,95.70
2019-05-21T08:17:48.707Z,95.60
2019-05-21T08:20:18.214Z,96.20
2019-05-21T08:22:46.648Z,95.50
2019-05-21T08:25:15.821Z,95.70
2019-05-21T08:28:27.213Z,95.80
2019-05-21T08:30:55.713Z,95.30
2019-05-21T08:33:24.238Z,96.20
2019-05-21T08:35:52.693Z,95.80
2019-05-21T08:38:21.140Z,96.00
2019-05-21T08:40:49.931Z,95.50
2019-05-21T08:43:18.387Z,95.80
2019-05-21T08:45:47.084Z,96.20
2019-05-21T08:48:15.534Z,96.00
2019-05-21T08:50:43.972Z,96.50
2019-05-21T08:53:12.444Z,96.50
2019-05-21T08:55:41.215Z,96.10
2019-05-21T08:58:09.658Z,96.20
2019-05-21T09:00:38.502Z,95.60
2019-05-21T09:03:07.023Z,95.80
2019-05-21T09:05:35.893Z,96.50
2019-05-21T09:08:04.463Z,95.80
2019-05-21T09:10:32.926Z,96.40
2019-05-21T09:13:01.358Z,97.00
2019-05-21T09:15:30.195Z,96.80
2019-05-21T09:17:58.983Z,97.00
2019-05-21T09:20:27.472Z,96.60
2019-05-21T09:23:05.221Z,96.70
2019-05-21T09:25:33.681Z,96.70
2019-05-21T09:28:02.532Z,96.30
2019-05-21T09:30:33.778Z,96.10
2019-05-21T09:33:02.566Z,96.10
2019-05-21T09:35:31.001Z,96.70
2019-05-21T09:37:59.463Z,96.30
2019-05-21T09:40:29.082Z,96.00
2019-05-21T09:42:57.968Z,95.80
2019-05-21T09:45:26.507Z,96.20
2019-05-21T09:47:56.017Z,96.30
2019-05-21T09:50:24.470Z,96.70
2019-05-21T09:52:52.912Z,96.50
2019-05-21T09:55:21.386Z,96.50
2019-05-21T09:58:08.126Z,96.80
2019-05-21T10:00:54.975Z,96.60
2019-05-21T10:03:25.405Z,96.50
2019-05-21T10:05:53.856Z,96.90
2019-05-21T10:08:22.297Z,96.90
2019-05-21T10:10:51.228Z,96.60
2019-05-21T10:13:19.705Z,96.80
2019-05-21T10:15:48.428Z,96.50
2019-05-21T10:18:16.933Z,96.40
2019-05-21T10:20:45.698Z,96.80
2019-05-21T10:23:14.131Z,96.60
2019-05-21T10:25:42.560Z,97.10
2019-05-21T10:28:11.344Z,96.70
2019-05-21T10:30:40.157Z,96.70
2019-05-21T10:33:08.919Z,96.70
2019-05-21T10:35:37.420Z,96.60
2019-05-21T10:38:05.956Z,97.10
2019-05-21T10:40:34.393Z,96.90
2019-05-21T10:43:02.825Z,96.60
2019-05-21T10:45:31.637Z,97.10
2019-05-21T10:48:00.072Z,97.20
2019-05-21T10:50:28.535Z,97.30
2019-05-21T10:52:57.385Z,97.00
2019-05-21T10:55:25.829Z,96.80
2019-05-21T10:57:54.552Z,96.70
2019-05-21T11:00:23.591Z,97.00
2019-05-21T11:02:53.825Z,96.90
2019-05-21T11:05:28.820Z,96.60
2019-05-21T11:07:56.785Z,96.30
2019-05-21T11:10:25.491Z,96.60
2019-05-21T11:12:54.239Z,96.60
2019-05-21T11:15:23.161Z,96.20
2019-05-21T11:18:09.115Z,97.00
2019-05-21T11:20:22.248Z,97.00
2019-05-21T11:22:50.675Z,96.50
2019-05-21T11:25:19.160Z,96.50
2019-05-21T11:27:47.600Z,96.70
2019-05-21T11:30:16.925Z,97.10
2019-05-21T11:32:47.964Z,96.80
2019-05-21T11:35:16.488Z,96.90
2019-05-21T11:37:47.881Z,96.80
2019-05-21T11:40:16.267Z,96.90
2019-05-21T11:42:44.798Z,96.90
2019-05-21T11:45:29.476Z,96.80
2019-05-21T11:47:44.201Z,96.50
2019-05-21T11:50:13.520Z,96.40
2019-05-21T11:52:42.333Z,96.50
2019-05-21T11:55:11.109Z,96.80
2019-05-21T11:57:39.546Z,96.50
2019-05-21T12:00:09.039Z,96.90
2019-05-21T12:02:37.792Z,96.40
2019-05-21T12:05:07.833Z,96.90
2019-05-21T12:07:36.601Z,96.80
2019-05-21T12:10:08.075Z,96.90
2019-05-21T12:12:36.595Z,96.80
2019-05-21T12:15:09.190Z,97.00
2019-05-21T12:17:37.627Z,96.70
2019-05-21T12:20:08.175Z,96.80
2019-05-21T12:22:36.623Z,97.10
2019-05-21T12:25:06.169Z,96.70
2019-05-21T12:27:34.947Z,96.60
2019-05-21T12:30:07.517Z,96.80
2019-05-21T12:32:36.042Z,97.40
2019-05-21T12:35:05.768Z,96.80
2019-05-21T12:37:34.357Z,96.30
2019-05-21T12:40:03.065Z,96.80
2019-05-21T12:42:31.694Z,97.10
2019-05-21T12:45:00.415Z,97.00
2019-05-21T12:47:28.884Z,97.00
2019-05-21T12:49:57.385Z,96.80
2019-05-21T12:52:26.571Z,97.30
2019-05-21T12:54:55.365Z,97.20
2019-05-21T12:57:24.151Z,97.00
2019-05-21T12:59:52.591Z,96.80
2019-05-21T13:02:21.032Z,96.60
2019-05-21T13:04:49.495Z,97.10
2019-05-21T13:07:17.935Z,97.20
2019-05-21T13:09:46.763Z,97.00
2019-05-21T13:12:15.544Z,97.10
2019-05-21T13:14:44.013Z,97.30
2019-05-21T13:17:12.708Z,97.00
2019-05-21T13:19:41.215Z,97.10
2019-05-21T13:22:10.121Z,96.90
2019-05-21T13:24:38.983Z,97.10
2019-05-21T13:27:07.873Z,97.10
2019-05-21T13:29:36.312Z,97.40
2019-05-21T13:32:05.038Z,97.00
2019-05-21T13:34:33.529Z,97.00
2019-05-21T13:37:21.308Z,97.10
2019-05-21T13:39:50.802Z,96.80
2019-05-21T13:42:19.369Z,96.80
2019-05-21T13:44:48.129Z,96.80
2019-05-21T13:47:16.645Z,96.80
2019-05-21T13:49:45.082Z,96.90
2019-05-21T13:52:13.874Z,96.30
2019-05-21T13:54:42.673Z,96.60
2019-05-21T13:57:11.553Z,96.70
2019-05-21T13:59:40.360Z,97.20
2019-05-21T14:02:10.882Z,96.90
2019-05-21T14:04:39.667Z,96.20
2019-05-21T14:07:08.446Z,97.20
2019-05-21T14:09:36.959Z,96.60
2019-05-21T14:12:06.034Z,96.70
2019-05-21T14:14:34.820Z,96.80
2019-05-21T14:17:03.247Z,97.20
2019-05-21T14:19:32.113Z,96.80
2019-05-21T14:22:00.937Z,96.50
2019-05-21T14:24:29.408Z,96.60
2019-05-21T14:26:58.145Z,96.90
2019-05-21T14:29:26.573Z,96.60
2019-05-21T14:31:55.093Z,97.20
2019-05-21T14:34:23.892Z,96.80
2019-05-21T14:36:52.360Z,96.80
2019-05-21T14:39:20.783Z,96.70
2019-05-21T14:41:49.255Z,97.00
2019-05-21T14:44:18.447Z,97.00
2019-05-21T14:46:47.218Z,97.10
2019-05-21T14:49:15.674Z,96.90
2019-05-21T14:51:44.104Z,96.50
2019-05-21T14:54:26.176Z,96.80
2019-05-21T14:56:47.272Z,96.30
2019-05-21T14:59:13.224Z,96.90
2019-05-21T15:01:42.012Z,96.60
2019-05-21T15:04:10.541Z,96.60
2019-05-21T15:06:38.985Z,97.00
2019-05-21T15:09:07.496Z,96.50
2019-05-21T15:11:35.942Z,96.30
2019-05-21T15:14:04.709Z,96.60
2019-05-21T15:16:33.178Z,96.50
2019-05-21T15:19:01.881Z,96.10
2019-05-21T15:21:35.178Z,96.80
2019-05-21T15:24:04.134Z,96.10
2019-05-21T15:26:32.708Z,96.30
2019-05-21T15:29:01.420Z,96.20
2019-05-21T15:31:29.896Z,96.10
2019-05-21T15:33:58.711Z,96.20
2019-05-21T15:36:27.142Z,96.50
2019-05-21T15:38:55.598Z,96.20
2019-05-21T15:41:24.037Z,96.20
2019-05-21T15:43:52.838Z,96.30
2019-05-21T15:46:21.272Z,96.90
2019-05-21T15:48:50.004Z,96.20
2019-05-21T15:51:18.788Z,96.60
2019-05-21T15:53:47.261Z,96.70
2019-05-21T15:56:15.685Z,96.80
2019-05-21T15:58:44.524Z,96.30
2019-05-21T16:01:13.286Z,96.40
2019-05-21T16:03:41.733Z,96.30
2019-05-21T16:06:10.258Z,96.50
2019-05-21T16:08:38.700Z,96.60
2019-05-21T16:11:07.549Z,96.40
2019-05-21T16:13:36.158Z,96.20
2019-05-21T16:16:04.776Z,96.40
2019-05-21T16:18:33.200Z,96.10
2019-05-21T16:21:01.703Z,96.60
2019-05-21T16:23:30.488Z,96.50
2019-05-21T16:25:59.036Z,96.00
2019-05-21T16:28:27.532Z,96.40
2019-05-21T16:30:56.217Z,96.50
2019-05-21T16:33:24.683Z,96.80
2019-05-21T16:35:53.133Z,96.60
2019-05-21T16:38:21.687Z,96.20
2019-05-21T16:40:50.119Z,96.10
2019-05-21T16:43:18.587Z,96.80
2019-05-21T16:45:47.090Z,96.40
2019-05-21T16:48:15.572Z,96.70
2019-05-21T16:50:44.064Z,97.10
2019-05-21T16:53:12.751Z,96.60
2019-05-21T16:55:41.511Z,96.10
2019-05-21T16:58:11.591Z,96.70
2019-05-21T17:00:40.295Z,96.20
2019-05-21T17:03:08.732Z,96.30
2019-05-21T17:05:37.180Z,96.20
2019-05-21T17:08:05.868Z,96.20
2019-05-21T17:10:34.422Z,96.30
2019-05-21T17:13:02.847Z,95.90
2019-05-21T17:15:31.625Z,96.30
2019-05-21T17:18:00.333Z,96.20
2019-05-21T17:20:28.828Z,95.80
2019-05-21T17:22:57.529Z,95.90
2019-05-21T17:25:25.958Z,96.10
2019-05-21T17:27:54.415Z,96.30
2019-05-21T17:30:22.864Z,96.40
2019-05-21T17:32:51.290Z,96.40
2019-05-21T17:35:19.819Z,96.10
2019-05-21T17:37:48.263Z,96.30
2019-05-21T17:40:16.961Z,96.30
2019-05-21T17:42:45.395Z,95.90
2019-05-21T17:45:14.164Z,95.80
2019-05-21T17:47:42.601Z,95.90
2019-05-21T17:50:11.405Z,96.10
2019-05-21T17:52:40.126Z,95.80
2019-05-21T17:55:09.035Z,95.80
2019-05-21T17:57:37.673Z,95.70
2019-05-21T18:00:08.144Z,95.70
2019-05-21T18:02:37.090Z,96.00
2019-05-21T18:05:08.539Z,95.90
2019-05-21T18:07:37.527Z,95.70
2019-05-21T18:10:09.376Z,96.10
2019-05-21T18:12:39.144Z,95.60
2019-05-21T18:15:10.507Z,95.50
2019-05-21T18:17:40.182Z,95.70
2019-05-21T18:20:09.910Z,96.10
2019-05-21T18:22:40.181Z,95.70
2019-05-21T18:25:10.336Z,95.30
2019-05-21T18:27:39.090Z,96.10
2019-05-21T18:30:09.690Z,95.80
2019-05-21T18:32:38.133Z,95.80
2019-05-21T18:35:08.027Z,95.80
2019-05-21T18:37:38.172Z,95.30
2019-05-21T18:40:09.151Z,95.10
2019-05-21T18:42:37.704Z,95.60
2019-05-21T18:45:08.087Z,95.30
2019-05-21T18:47:36.878Z,95.40
2019-05-21T18:50:09.455Z,95.30
2019-05-21T18:52:38.226Z,95.60
2019-05-21T18:55:07.556Z,95.40
2019-05-21T18:57:36.199Z,95.70
2019-05-21T19:00:09.065Z,95.60
2019-05-21T19:02:37.527Z,95.80
2019-05-21T19:05:07.394Z,96.20
2019-05-21T19:07:35.912Z,96.00
2019-05-21T19:10:07.388Z,95.40
2019-05-21T19:12:38.331Z,95.00
2019-05-21T19:15:07.651Z,95.40
2019-05-21T19:17:36.437Z,95.40
2019-05-21T19:20:07.620Z,95.30
2019-05-21T19:22:36.517Z,95.40
2019-05-21T19:25:08.506Z,95.20
2019-05-21T19:27:36.962Z,95.00
2019-05-21T19:30:07.149Z,95.40
2019-05-21T19:32:35.978Z,94.90
2019-05-21T19:35:06.410Z,95.40
2019-05-21T19:37:34.847Z,94.70
2019-05-21T19:40:03.802Z,94.40
2019-05-21T19:42:32.233Z,95.10
2019-05-21T19:45:00.958Z,95.30
2019-05-21T19:47:29.463Z,95.20
2019-05-21T19:49:57.914Z,95.00
2019-05-21T19:52:26.636Z,94.90
2019-05-21T19:54:55.320Z,94.90
2019-05-21T19:57:25.490Z,95.50
2019-05-21T19:59:53.930Z,94.90
2019-05-21T20:02:22.720Z,94.90
2019-05-21T20:04:51.318Z,95.20
2019-05-21T20:07:21.514Z,95.10
2019-05-21T20:09:51.918Z,95.40
2019-05-21T20:12:20.905Z,95.00
2019-05-21T20:14:49.584Z,95.10
2019-05-21T20:17:18.171Z,94.70
2019-05-21T20:19:47.538Z,94.70
2019-05-21T20:22:16.651Z,94.70
2019-05-21T20:24:45.834Z,94.80
2019-05-21T20:27:14.918Z,95.00
2019-05-21T20:29:43.771Z,94.80
2019-05-21T20:32:14.158Z,95.00
2019-05-21T20:34:42.943Z,95.10
2019-05-21T20:37:13.253Z,94.90
2019-05-21T20:39:43.132Z,95.00
2019-05-21T20:42:13.474Z,95.10
2019-05-21T20:44:42.096Z,95.10
2019-05-21T20:47:12.193Z,95.30
2019-05-21T20:49:42.806Z,95.20
2019-05-21T20:52:18.669Z,95.00
2019-05-21T20:54:44.294Z,95.10
2019-05-21T20:57:13.554Z,94.80
2019-05-21T20:59:42.069Z,94.60
2019-05-21T21:02:11.132Z,95.00
2019-05-21T21:04:39.747Z,94.50
2019-05-21T21:07:08.349Z,94.40
2019-05-21T21:09:37.297Z,94.20
2019-05-21T21:12:06.369Z,94.90
2019-05-21T21:14:36.679Z,95.00
2019-05-21T21:17:06.045Z,94.50
2019-05-21T21:19:34.879Z,94.60
2019-05-21T21:22:03.377Z,94.60
2019-05-21T21:24:31.844Z,94.20
2019-05-21T21:27:00.523Z,94.50
2019-05-21T21:29:29.069Z,94.30
2019-05-21T21:31:57.652Z,94.60
2019-05-21T21:34:26.420Z,94.50
2019-05-21T21:36:55.772Z,94.60
2019-05-21T21:39:24.220Z,94.70
2019-05-21T21:41:52.938Z,94.60
2019-05-21T21:44:33.379Z,94.80
2019-05-21T21:46:52.709Z,94.30
2019-05-21T21:49:23.284Z,94.90
2019-05-21T21:51:52.049Z,94.90
2019-05-21T21:54:20.929Z,94.50
2019-05-21T21:56:49.755Z,94.10
2019-05-21T21:59:18.463Z,94.30
2019-05-21T22:01:54.563Z,95.10
2019-05-21T22:04:28.108Z,94.70
2019-05-21T22:06:56.773Z,94.20
2019-05-21T22:09:27.043Z,94.30
2019-05-21T22:11:55.816Z,94.90
2019-05-21T22:14:24.921Z,95.00
2019-05-21T22:16:53.702Z,94.70
2019-05-21T22:19:22.974Z,94.20
2019-05-21T22:21:52.058Z,93.90
2019-05-21T22:24:20.742Z,94.30
2019-05-21T22:26:49.394Z,93.90
2019-05-21T22:29:17.985Z,94.00
2019-05-21T22:31:46.604Z,94.00
2019-05-21T22:34:15.375Z,94.00
2019-05-21T22:36:43.856Z,94.10
2019-05-21T22:39:20.104Z,94.10
2019-05-21T22:41:48.730Z,94.40
2019-05-21T22:44:17.410Z,94.60
2019-05-21T22:46:46.741Z,93.90
2019-05-21T22:49:15.208Z,94.00
2019-05-21T22:51:43.638Z,94.30
2019-05-21T22:54:12.101Z,94.40
2019-05-21T22:56:40.546Z,94.30
2019-05-21T22:59:09.172Z,94.00
2019-05-21T23:01:38.291Z,94.30
2019-05-21T23:04:07.009Z,94.30
2019-05-21T23:06:36.154Z,94.50
2019-05-21T23:09:06.873Z,94.50
2019-05-21T23:11:35.416Z,94.30
2019-05-21T23:14:04.646Z,94.40
2019-05-21T23:16:33.487Z,93.80
2019-05-21T23:19:02.298Z,93.70
2019-05-21T23:21:31.396Z,94.20
2019-05-21T23:24:00.071Z,94.30
2019-05-21T23:26:29.273Z,94.70
2019-05-21T23:28:57.786Z,93.90
2019-05-21T23:31:26.748Z,94.30
2019-05-21T23:33:56.254Z,94.90
2019-05-21T23:36:24.940Z,94.60
2019-05-21T23:38:53.670Z,94.30
2019-05-21T23:41:22.593Z,94.20
2019-05-21T23:43:51.044Z,93.50
2019-05-21T23:46:19.557Z,94.10
2019-05-21T23:48:48.670Z,94.50
2019-05-21T23:51:17.220Z,93.80
2019-05-21T23:53:46.167Z,93.80
2019-05-21T23:56:14.938Z,94.30
2019-05-21T23:58:43.444Z,93.90
